Jastrebac I + 6 Barz — YT2423 — position and weather

sailwx.info

Track history (hours):
 
Tides and Currents Weather Stations Pressure Air Temp Water Temp Dewpoint Dewpoint Depression Visibility Wind Speed Wind Dir Waves Ship Positions

Jastrebac I + 6 Barz

Last reported at 2018-Jun-18 17:30 UTC. Time now 2018-Jun-18 17:36 UTC.
Position N 44°40' E 020°45'.

Length 190 m.

Type: Ship. MMSI: 279202423.

Date/timePositionNaut miles runAvg speedWind from/ knotsBaromVisibWave heightAir tempDewpointWater temp
2018-Jun-18 17:30N 44°40' E 020°45'3 6.5
2018-Jun-18 17:00N 44°42' E 020°42'3 6.3
2018-Jun-18 16:30N 44°45' E 020°39'3 6.2
2018-Jun-18 16:00N 44°47' E 020°38'3 6.1
2018-Jun-18 15:30N 44°50' E 020°38'3 5.7
2018-Jun-18 15:00N 44°51' E 020°35'3 6.3
2018-Jun-18 14:30N 44°50' E 020°31'3 6.5
2018-Jun-18 14:01N 44°50' E 020°26'3 6.8
2018-Jun-18 13:30N 44°52' E 020°22'3 6.5
2018-Jun-18 13:00N 44°55' E 020°20'4 7.0
2018-Jun-18 12:30N 44°58' E 020°17'3 6.0
2018-Jun-18 12:00N 45°00' E 020°21'3 5.9
2018-Jun-18 11:30N 45°03' E 020°21'4 7.1
2018-Jun-18 11:00N 45°06' E 020°18'4 7.0
2018-Jun-18 10:30N 45°09' E 020°16'3 7.0
2018-Jun-18 10:00N 45°11' E 020°12'3 6.8
2018-Jun-18 09:30N 45°10' E 020°07'4 7.1
2018-Jun-18 09:00N 45°10' E 020°02'3 6.8
2018-Jun-18 08:30N 45°12' E 019°57'3 6.9
2018-Jun-18 08:01N 45°15' E 019°55'1 2.2
2018-Jun-18 07:31N 45°15' E 019°54'0 0.1
2018-Jun-18 07:00N 45°15' E 019°54'2 3.2
2018-Jun-18 06:30N 45°15' E 019°52'3 6.6
2018-Jun-18 06:00N 45°13' E 019°47'1 2.4
2018-Jun-18 05:29N 45°14' E 019°46'0 0.2
2018-Jun-18 05:00N 45°14' E 019°46'0 0.0
2018-Jun-18 04:30N 45°14' E 019°46'0 0.2
2018-Jun-18 04:00N 45°14' E 019°46'0 0.2
2018-Jun-18 03:30N 45°14' E 019°46'0 1.0
2018-Jun-18 03:00N 45°14' E 019°46'2 4.6
2018-Jun-18 02:31N 45°13' E 019°50'2 4.3
2018-Jun-18 02:01N 45°15' E 019°52'2 3.2
2018-Jun-18 01:31N 45°15' E 019°54'1 2.1
2018-Jun-18 01:01N 45°16' E 019°52'3 6.6
2018-Jun-18 00:30N 45°13' E 019°49'3 5.3
2018-Jun-18 00:00N 45°14' E 019°46'0 0.0
2018-Jun-17 23:30N 45°14' E 019°46'0 0.2
2018-Jun-17 23:00N 45°14' E 019°46'0 0.0
2018-Jun-17 22:30N 45°14' E 019°46'0 0.0
2018-Jun-17 22:00N 45°14' E 019°46'0 0.0
2018-Jun-17 21:30N 45°14' E 019°46'0 0.0
2018-Jun-17 21:00N 45°14' E 019°46'0 0.0
2018-Jun-17 20:30N 45°14' E 019°46'0 0.0
2018-Jun-17 20:00N 45°14' E 019°46'0 0.0
2018-Jun-17 19:30N 45°14' E 019°46'0 0.2
2018-Jun-17 19:00N 45°14' E 019°46'0 0.3
2018-Jun-17 18:30N 45°14' E 019°46'1 2.8
2018-Jun-17 18:01N 45°13' E 019°48'2 3.2
2018-Jun-17 17:31N 45°14' E 019°50'2 3.4
2018-Jun-17 17:01N 45°15' E 019°52'1 2.5
2018-Jun-17 16:30N 45°16' E 019°53'1 1.6
2018-Jun-17 16:00N 45°15' E 019°54'2 4.3
2018-Jun-17 15:31N 45°14' E 019°51'4 7.4
2018-Jun-17 15:01N 45°14' E 019°46'0 0.5
2018-Jun-17 14:30N 45°14' E 019°46'0 0.0
2018-Jun-17 12:00N 45°14' E 019°46'0 0.0
2018-Jun-17 11:30N 45°14' E 019°46'0 0.0
2018-Jun-17 11:00N 45°14' E 019°46'0 0.0
2018-Jun-17 10:30N 45°14' E 019°46'0 0.0
2018-Jun-17 10:00N 45°14' E 019°46'0 0.0
2018-Jun-17 09:28N 45°14' E 019°46'0 0.0
2018-Jun-17 08:58N 45°14' E 019°46'0 0.0
2018-Jun-17 08:30N 45°14' E 019°46'0 0.0
2018-Jun-17 08:00N 45°14' E 019°46'0 0.0
2018-Jun-17 03:23N 45°14' E 019°46'0 0.2
2018-Jun-17 03:00N 45°14' E 019°46'0 0.9
2018-Jun-17 02:30N 45°14' E 019°46'1 2.4
2018-Jun-17 02:01N 45°13' E 019°48'1 2.3
2018-Jun-17 01:30N 45°14' E 019°50'1 2.5
2018-Jun-17 01:01N 45°14' E 019°51'1 2.4
2018-Jun-17 00:31N 45°15' E 019°51'1 1.9
2018-Jun-17 00:01N 45°16' E 019°53'1 1.8
2018-Jun-16 23:31N 45°15' E 019°54'1 1.1
2018-Jun-16 23:00N 45°15' E 019°54'1 2.0
2018-Jun-16 22:31N 45°14' E 019°55'1 2.1
2018-Jun-16 22:00N 45°13' E 019°56'1 2.2
2018-Jun-16 21:31N 45°12' E 019°57'1 2.3
2018-Jun-16 21:01N 45°12' E 019°58'1 2.2
2018-Jun-16 20:30N 45°11' E 019°59'1 2.3
2018-Jun-16 20:01N 45°11' E 020°00'1 2.3
2018-Jun-16 19:31N 45°10' E 020°02'1 2.1
2018-Jun-16 19:01N 45°10' E 020°03'1 1.9
2018-Jun-16 18:31N 45°10' E 020°05'1 2.1
2018-Jun-16 18:01N 45°10' E 020°06'1 1.8
2018-Jun-16 17:31N 45°10' E 020°08'1 2.0
2018-Jun-16 17:00N 45°11' E 020°09'1 2.3
2018-Jun-16 16:30N 45°11' E 020°10'1 2.0
2018-Jun-16 16:00N 45°11' E 020°12'1 2.0
2018-Jun-16 15:31N 45°10' E 020°13'1 2.1
2018-Jun-16 15:01N 45°10' E 020°14'1 2.2
2018-Jun-16 14:29N 45°09' E 020°16'1 2.2
2018-Jun-16 14:00N 45°08' E 020°16'1 2.4
2018-Jun-16 13:30N 45°07' E 020°17'1 2.5
2018-Jun-16 13:00N 45°06' E 020°18'2 2.1
2018-Jun-16 11:51N 45°04' E 020°20'1 2.5
2018-Jun-16 11:30N 45°03' E 020°21'1 2.4
2018-Jun-16 11:00N 45°02' E 020°22'1 2.2
2018-Jun-16 10:30N 45°01' E 020°22'1 2.0
2018-Jun-16 10:01N 45°00' E 020°21'1 2.4
2018-Jun-16 09:30N 44°60' E 020°19'1 1.7
2018-Jun-16 09:01N 44°60' E 020°18'0 0.5
2018-Jun-16 08:30N 44°60' E 020°19'0 0.5
2018-Jun-16 08:01N 44°60' E 020°18'1 2.1
2018-Jun-16 07:31N 44°59' E 020°17'1 2.2
2018-Jun-16 07:00N 44°58' E 020°17'1 2.3
2018-Jun-16 06:31N 44°57' E 020°18'1 2.5
2018-Jun-16 06:01N 44°56' E 020°19'1 2.0
2018-Jun-16 05:31N 44°55' E 020°20'1 1.8
2018-Jun-16 05:00N 44°54' E 020°21'1 2.1
2018-Jun-16 04:31N 44°53' E 020°21'1 2.3
2018-Jun-16 04:01N 44°52' E 020°22'1 2.1
2018-Jun-16 03:30N 44°52' E 020°23'1 2.1
2018-Jun-16 03:01N 44°51' E 020°25'1 2.3
2018-Jun-16 02:31N 44°51' E 020°26'1 2.3
2018-Jun-16 02:01N 44°50' E 020°27'1 2.5
2018-Jun-16 01:31N 44°50' E 020°29'2 2.9
2018-Jun-16 00:49N 44°50' E 020°32'1 3.0
2018-Jun-16 00:30N 44°50' E 020°33'1 2.9
2018-Jun-16 00:00N 44°51' E 020°35'1 2.8
2018-Jun-15 23:30N 44°51' E 020°37'1 2.7
2018-Jun-15 23:00N 44°50' E 020°38'1 2.6
2018-Jun-15 22:30N 44°49' E 020°39'1 2.4
2018-Jun-15 22:00N 44°48' E 020°38'2 3.0
2018-Jun-15 21:23N 44°46' E 020°38'1 3.0
2018-Jun-15 20:58N 44°45' E 020°38'1 2.8
2018-Jun-15 20:30N 44°44' E 020°40'1 2.8
2018-Jun-15 20:00N 44°43' E 020°41'2 3.0
2018-Jun-15 19:30N 44°42' E 020°42'1 2.9
2018-Jun-15 19:00N 44°41' E 020°43'5 2.7
2018-Jun-15 17:06N 44°40' E 020°50'2 3.0
2018-Jun-15 16:37N 44°40' E 020°52'1 3.1
2018-Jun-15 16:14N 44°40' E 020°54'1 2.9
2018-Jun-15 15:48N 44°41' E 020°56'1 3.1
2018-Jun-15 15:21N 44°42' E 020°57'1 3.1
2018-Jun-15 15:00N 44°42' E 020°58'1 0.1
2018-Jun-15 09:47N 44°43' E 020°59'0 0.0
2018-Jun-14 22:14N 44°43' E 020°59'0 0.0
2018-Jun-14 22:00N 44°43' E 020°59'0 0.0
2018-Jun-14 21:30N 44°43' E 020°59'0 0.0
2018-Jun-14 21:00N 44°43' E 020°59'0 0.0
2018-Jun-14 20:30N 44°43' E 020°59'0 0.3
2018-Jun-14 20:00N 44°43' E 020°59'0 0.2
2018-Jun-14 19:30N 44°43' E 020°59'0 0.0
2018-Jun-14 19:00N 44°43' E 020°59'0 0.0
2018-Jun-14 18:30N 44°43' E 020°59'0 0.0
2018-Jun-14 18:01N 44°43' E 020°59'0 0.0
2018-Jun-14 17:31N 44°43' E 020°59'0 0.0
2018-Jun-14 17:01N 44°43' E 020°59'0 0.3
2018-Jun-14 16:30N 44°43' E 020°59'0 0.7
2018-Jun-14 16:00N 44°43' E 020°60'0 0.9
2018-Jun-14 15:30N 44°43' E 020°59'0 0.0
2018-Jun-14 15:00N 44°43' E 020°59'0 0.0
2018-Jun-14 14:30N 44°43' E 020°59'0 0.0
2018-Jun-14 14:00N 44°43' E 020°59'0 0.0
2018-Jun-14 13:30N 44°43' E 020°59'0 0.4
2018-Jun-14 13:00N 44°43' E 020°59'0 0.1
2018-Jun-14 12:30N 44°43' E 020°59'0 0.4
2018-Jun-14 12:00N 44°43' E 020°59'0 0.0
2018-Jun-14 11:30N 44°43' E 020°59'0 0.0
2018-Jun-14 11:00N 44°43' E 020°59'0 0.0
2018-Jun-14 10:29N 44°43' E 020°59'0 0.0
2018-Jun-14 10:00N 44°43' E 020°59'0 0.4
2018-Jun-14 09:30N 44°43' E 020°59'0 0.0
2018-Jun-14 09:00N 44°43' E 020°59'0 0.0
2018-Jun-14 08:30N 44°43' E 020°59'0 0.0
2018-Jun-14 08:00N 44°43' E 020°59'0 0.0
2018-Jun-14 07:17N 44°43' E 020°59'0 0.2
2018-Jun-14 06:34N 44°43' E 020°59'0 0.0
2018-Jun-14 06:12N 44°43' E 020°59'0 0.0
2018-Jun-14 05:58N 44°43' E 020°59'0 0.0
2018-Jun-14 05:26N 44°43' E 020°59'0 0.0
2018-Jun-14 04:57N 44°43' E 020°59'0 0.0
2018-Jun-14 04:13N 44°43' E 020°59'0 0.0
2018-Jun-14 03:58N 44°43' E 020°59'0 0.0
2018-Jun-14 03:17N 44°43' E 020°59'0 0.0
2018-Jun-14 03:00N 44°43' E 020°59'0 0.0
2018-Jun-14 02:27N 44°43' E 020°59'0 0.0
2018-Jun-14 01:55N 44°43' E 020°59'0 0.0
2018-Jun-13 23:38N 44°43' E 020°59'0 0.0
2018-Jun-13 23:30N 44°43' E 020°59'0 0.0
2018-Jun-13 23:00N 44°43' E 020°59'0 0.0
2018-Jun-13 22:30N 44°43' E 020°59'0 0.8
2018-Jun-13 21:59N 44°43' E 020°60'0 0.0
2018-Jun-13 21:30N 44°43' E 020°60'0 0.0
2018-Jun-13 20:59N 44°43' E 020°60'0 0.0
2018-Jun-13 20:30N 44°43' E 020°60'0 0.0
2018-Jun-13 20:00N 44°43' E 020°60'0 0.0
2018-Jun-13 19:30N 44°43' E 020°60'0 0.4
2018-Jun-13 19:00N 44°43' E 020°59'0 0.4
2018-Jun-13 18:30N 44°43' E 020°59'0 0.7
2018-Jun-13 18:00N 44°43' E 020°59'1 2.8
2018-Jun-13 17:30N 44°42' E 020°58'2 4.1
2018-Jun-13 17:00N 44°41' E 020°56'0 0.0
2018-Jun-13 16:30N 44°41' E 020°56'0 0.1
2018-Jun-13 16:00N 44°41' E 020°56'0 0.4
2018-Jun-13 15:30N 44°41' E 020°56'2 4.1
2018-Jun-13 15:00N 44°40' E 020°54'3 6.1
2018-Jun-13 14:30N 44°39' E 020°49'3 6.4
2018-Jun-13 14:00N 44°40' E 020°45'3 6.4
2018-Jun-13 13:30N 44°42' E 020°42'3 6.2
2018-Jun-13 13:00N 44°45' E 020°39'3 5.7
2018-Jun-13 12:30N 44°47' E 020°38'3 6.0
2018-Jun-13 12:00N 44°50' E 020°38'3 5.4
2018-Jun-13 11:30N 44°51' E 020°35'3 5.8
2018-Jun-13 11:01N 44°50' E 020°31'3 6.1
2018-Jun-13 10:30N 44°50' E 020°27'3 6.5
2018-Jun-13 10:00N 44°52' E 020°23'3 6.4
2018-Jun-13 09:30N 44°55' E 020°20'3 6.8
2018-Jun-13 09:00N 44°57' E 020°17'3 5.1
2018-Jun-13 08:30N 44°60' E 020°18'0 0.1
2018-Jun-13 08:00N 44°60' E 020°18'0 0.4
2018-Jun-13 07:30N 44°60' E 020°19'0 0.4
2018-Jun-13 07:01N 44°60' E 020°18'1 2.8
2018-Jun-13 06:31N 45°00' E 020°20'3 5.0
2018-Jun-13 06:01N 45°02' E 020°22'3 6.2
2018-Jun-13 05:28N 45°05' E 020°19'3 6.3
2018-Jun-13 04:59N 45°08' E 020°17'3 6.3
2018-Jun-13 04:30N 45°10' E 020°14'3 5.7
2018-Jun-13 04:00N 45°11' E 020°10'3 5.9
2018-Jun-13 03:30N 45°10' E 020°06'3 6.1
2018-Jun-13 03:00N 45°10' E 020°02'2 4.4
2018-Jun-13 02:30N 45°11' E 019°59'0 0.2
2018-Jun-13 02:00N 45°11' E 019°59'0 0.0
2018-Jun-13 01:30N 45°11' E 019°59'0 0.0
2018-Jun-13 01:00N 45°11' E 019°59'0 0.0
2018-Jun-13 00:30N 45°11' E 019°59'0 0.1
2018-Jun-13 00:00N 45°11' E 019°59'0 0.0
2018-Jun-12 23:30N 45°11' E 019°59'0 0.0
2018-Jun-12 23:00N 45°11' E 019°59'0 0.0
2018-Jun-12 22:30N 45°11' E 019°59'0 0.0
2018-Jun-12 22:00N 45°11' E 019°59'0 0.0
2018-Jun-12 21:30N 45°11' E 019°59'0 0.0
2018-Jun-12 21:00N 45°11' E 019°59'0 0.0
2018-Jun-12 20:30N 45°11' E 019°59'0 0.0
2018-Jun-12 20:00N 45°11' E 019°59'0 0.0
2018-Jun-12 19:30N 45°11' E 019°59'0 0.0
2018-Jun-12 19:00N 45°11' E 019°59'0 0.0
2018-Jun-12 18:30N 45°11' E 019°59'0 0.0
2018-Jun-12 18:00N 45°11' E 019°59'0 0.5
2018-Jun-12 17:30N 45°11' E 019°59'0 0.1
2018-Jun-12 17:00N 45°11' E 019°59'0 0.1
2018-Jun-12 16:30N 45°11' E 019°59'0 0.0
2018-Jun-12 16:00N 45°11' E 019°59'0 0.0
2018-Jun-12 15:30N 45°11' E 019°59'0 0.0
2018-Jun-12 15:00N 45°11' E 019°59'0 0.2
2018-Jun-12 14:30N 45°11' E 019°59'0 0.3
2018-Jun-12 14:00N 45°11' E 019°59'0 0.0
2018-Jun-12 13:30N 45°11' E 019°59'0 0.0
2018-Jun-12 13:00N 45°11' E 019°59'0 0.0
2018-Jun-12 12:30N 45°11' E 019°59'0 0.0
2018-Jun-12 12:00N 45°11' E 019°59'0 0.0
2018-Jun-12 11:30N 45°11' E 019°59'0 0.0
2018-Jun-12 11:00N 45°11' E 019°59'0 0.0
2018-Jun-12 10:30N 45°11' E 019°59'0 0.0
2018-Jun-12 09:47N 45°11' E 019°59'0 0.9
2018-Jun-12 09:30N 45°11' E 019°59'0 0.5
2018-Jun-12 09:00N 45°11' E 019°59'0 0.0
2018-Jun-12 08:30N 45°11' E 019°59'0 0.0
2018-Jun-12 08:00N 45°11' E 019°59'0 0.0
2018-Jun-12 07:30N 45°11' E 019°59'0 0.0
2018-Jun-12 07:00N 45°11' E 019°59'0 0.0
2018-Jun-12 06:30N 45°11' E 019°59'0 0.0
2018-Jun-12 06:00N 45°11' E 019°59'0 0.0
2018-Jun-12 05:30N 45°11' E 019°59'0 0.0
2018-Jun-12 05:00N 45°11' E 019°59'0 0.0
2018-Jun-12 04:30N 45°11' E 019°59'0 0.4
2018-Jun-12 04:00N 45°11' E 019°59'0 0.4
2018-Jun-12 03:30N 45°11' E 019°59'0 0.4
2018-Jun-12 03:00N 45°11' E 019°59'0 0.5
2018-Jun-12 02:30N 45°11' E 019°59'0 0.0
2018-Jun-12 02:00N 45°11' E 019°59'0 0.0
2018-Jun-12 01:30N 45°11' E 019°59'0 0.0
2018-Jun-12 00:50N 45°11' E 019°59'0 0.0
2018-Jun-12 00:30N 45°11' E 019°59'0 0.0
2018-Jun-12 00:00N 45°11' E 019°59'0 0.0
2018-Jun-11 23:30N 45°11' E 019°59'0 0.0
2018-Jun-11 23:00N 45°11' E 019°59'0 0.0
2018-Jun-11 22:30N 45°11' E 019°59'0 0.0
2018-Jun-11 22:00N 45°11' E 019°59'0 0.3
2018-Jun-11 21:30N 45°11' E 019°59'0 0.1
2018-Jun-11 21:00N 45°11' E 019°59'0 0.4
2018-Jun-11 20:30N 45°11' E 019°59'0 0.5
2018-Jun-11 20:00N 45°11' E 019°59'0 0.0
2018-Jun-11 19:30N 45°11' E 019°59'0 0.0
2018-Jun-11 19:00N 45°11' E 019°59'0 0.0
2018-Jun-11 18:30N 45°11' E 019°59'0 0.0
2018-Jun-11 18:00N 45°11' E 019°59'0 0.0
2018-Jun-11 17:30N 45°11' E 019°59'0 0.0
2018-Jun-11 17:00N 45°11' E 019°59'0 0.0
2018-Jun-11 16:30N 45°11' E 019°59'0 0.4
2018-Jun-11 16:00N 45°11' E 019°59'0 0.3
2018-Jun-11 15:30N 45°11' E 019°59'0 0.1
2018-Jun-11 15:00N 45°11' E 019°59'0 0.5
2018-Jun-11 14:30N 45°11' E 019°59'0 0.0
2018-Jun-11 14:00N 45°11' E 019°59'0 0.0
2018-Jun-11 13:30N 45°11' E 019°59'0 0.0
2018-Jun-11 13:00N 45°11' E 019°59'0 0.0
2018-Jun-11 12:30N 45°11' E 019°59'0 0.0
2018-Jun-11 12:00N 45°11' E 019°59'0 0.0
2018-Jun-11 11:30N 45°11' E 019°59'0 0.0
2018-Jun-11 11:00N 45°11' E 019°59'0 0.0
2018-Jun-11 10:30N 45°11' E 019°59'0 0.0
2018-Jun-11 10:00N 45°11' E 019°59'0 0.0
2018-Jun-11 09:30N 45°11' E 019°59'0 0.1
2018-Jun-11 09:00N 45°11' E 019°58'0 0.4
2018-Jun-11 08:30N 45°11' E 019°59'0 0.0
2018-Jun-11 08:00N 45°11' E 019°59'18 0.5
2018-Jun-09 18:19N 44°60' E 020°18'0 0.0
2018-Jun-09 18:00N 44°60' E 020°18'0 0.0
2018-Jun-09 17:29N 44°60' E 020°18'0 0.0
2018-Jun-09 17:00N 44°60' E 020°18'0 0.0
2018-Jun-09 16:30N 44°60' E 020°18'0 0.0
2018-Jun-09 16:00N 44°60' E 020°18'0 0.0
2018-Jun-09 15:30N 44°60' E 020°18'0 0.0
2018-Jun-09 14:30N 44°60' E 020°18'0 0.0
2018-Jun-09 14:00N 44°60' E 020°18'0 0.3
2018-Jun-09 13:30N 44°60' E 020°18'0 0.3
2018-Jun-09 13:00N 44°60' E 020°18'0 0.0
2018-Jun-09 12:30N 44°60' E 020°18'0 0.1
2018-Jun-09 12:00N 44°60' E 020°18'0 0.3
2018-Jun-09 11:30N 44°60' E 020°19'0 0.0
2018-Jun-09 11:00N 44°60' E 020°19'0 0.0
2018-Jun-09 10:30N 44°60' E 020°19'0 0.0
2018-Jun-09 10:00N 44°60' E 020°19'0 0.0
2018-Jun-09 09:30N 44°60' E 020°19'0 0.0
2018-Jun-09 09:00N 44°60' E 020°19'0 0.0
2018-Jun-09 08:30N 44°60' E 020°19'0 0.0
2018-Jun-09 08:00N 44°60' E 020°19'0 0.0
2018-Jun-09 07:30N 44°60' E 020°19'0 0.0
2018-Jun-09 07:00N 44°60' E 020°19'0 0.0
2018-Jun-09 06:30N 44°60' E 020°19'0 0.0
2018-Jun-09 06:00N 44°60' E 020°19'0 0.0
2018-Jun-09 05:30N 44°60' E 020°19'0 0.0
2018-Jun-09 05:00N 44°60' E 020°19'0 0.1
2018-Jun-09 04:30N 44°60' E 020°19'0 0.1
2018-Jun-09 04:00N 44°60' E 020°19'0 0.3
2018-Jun-09 03:30N 44°60' E 020°18'0 0.0
2018-Jun-09 03:00N 44°60' E 020°18'0 0.0
2018-Jun-09 02:30N 44°60' E 020°18'0 0.4
2018-Jun-09 02:00N 44°60' E 020°19'0 0.0
2018-Jun-09 01:30N 44°60' E 020°19'0 0.0
2018-Jun-09 01:00N 44°60' E 020°19'0 0.0
2018-Jun-09 00:30N 44°60' E 020°19'0 0.0
2018-Jun-09 00:00N 44°60' E 020°19'0 0.0
2018-Jun-08 23:30N 44°60' E 020°19'0 0.0
2018-Jun-08 23:00N 44°60' E 020°19'0 0.0
2018-Jun-08 22:30N 44°60' E 020°19'0 0.0
2018-Jun-08 22:00N 44°60' E 020°19'0 0.0
2018-Jun-08 21:30N 44°60' E 020°19'0 0.6
2018-Jun-08 21:00N 44°60' E 020°18'0 0.7
2018-Jun-08 20:30N 44°60' E 020°19'0 0.3
2018-Jun-08 20:00N 44°60' E 020°18'0 0.0
2018-Jun-08 19:30N 44°60' E 020°18'0 0.0
2018-Jun-08 19:00N 44°60' E 020°18'0 0.0
2018-Jun-08 18:30N 44°60' E 020°18'0 0.0
2018-Jun-08 18:00N 44°60' E 020°18'0 0.0
2018-Jun-08 17:30N 44°60' E 020°18'  
Track history (hours):
 
Tides and Currents Weather Stations Pressure Air Temp Water Temp Dewpoint Dewpoint Depression Visibility Wind Speed Wind Dir Waves Ship Positions

Jastrebac I + 6 Barz

Last reported at 2018-Jun-18 17:30 UTC. Time now 2018-Jun-18 17:36 UTC.
Position N 44°40' E 020°45'.

Length 190 m.

Type: Ship. MMSI: 279202423.

Date/timePositionNaut miles runAvg speedWind from/ knotsBaromVisibWave heightAir tempDewpointWater temp
2018-Jun-18 17:30N 44°40' E 020°45'3 6.5
2018-Jun-18 17:00N 44°42' E 020°42'3 6.3
2018-Jun-18 16:30N 44°45' E 020°39'3 6.2
2018-Jun-18 16:00N 44°47' E 020°38'3 6.1
2018-Jun-18 15:30N 44°50' E 020°38'3 5.7
2018-Jun-18 15:00N 44°51' E 020°35'3 6.3
2018-Jun-18 14:30N 44°50' E 020°31'3 6.5
2018-Jun-18 14:01N 44°50' E 020°26'3 6.8
2018-Jun-18 13:30N 44°52' E 020°22'3 6.5
2018-Jun-18 13:00N 44°55' E 020°20'4 7.0
2018-Jun-18 12:30N 44°58' E 020°17'3 6.0
2018-Jun-18 12:00N 45°00' E 020°21'3 5.9
2018-Jun-18 11:30N 45°03' E 020°21'4 7.1
2018-Jun-18 11:00N 45°06' E 020°18'4 7.0
2018-Jun-18 10:30N 45°09' E 020°16'3 7.0
2018-Jun-18 10:00N 45°11' E 020°12'3 6.8
2018-Jun-18 09:30N 45°10' E 020°07'4 7.1
2018-Jun-18 09:00N 45°10' E 020°02'3 6.8
2018-Jun-18 08:30N 45°12' E 019°57'3 6.9
2018-Jun-18 08:01N 45°15' E 019°55'1 2.2
2018-Jun-18 07:31N 45°15' E 019°54'0 0.1
2018-Jun-18 07:00N 45°15' E 019°54'2 3.2
2018-Jun-18 06:30N 45°15' E 019°52'3 6.6
2018-Jun-18 06:00N 45°13' E 019°47'1 2.4
2018-Jun-18 05:29N 45°14' E 019°46'0 0.2
2018-Jun-18 05:00N 45°14' E 019°46'0 0.0
2018-Jun-18 04:30N 45°14' E 019°46'0 0.2
2018-Jun-18 04:00N 45°14' E 019°46'0 0.2
2018-Jun-18 03:30N 45°14' E 019°46'0 1.0
2018-Jun-18 03:00N 45°14' E 019°46'2 4.6
2018-Jun-18 02:31N 45°13' E 019°50'2 4.3
2018-Jun-18 02:01N 45°15' E 019°52'2 3.2
2018-Jun-18 01:31N 45°15' E 019°54'1 2.1
2018-Jun-18 01:01N 45°16' E 019°52'3 6.6
2018-Jun-18 00:30N 45°13' E 019°49'3 5.3
2018-Jun-18 00:00N 45°14' E 019°46'0 0.0
2018-Jun-17 23:30N 45°14' E 019°46'0 0.2
2018-Jun-17 23:00N 45°14' E 019°46'0 0.0
2018-Jun-17 22:30N 45°14' E 019°46'0 0.0
2018-Jun-17 22:00N 45°14' E 019°46'0 0.0
2018-Jun-17 21:30N 45°14' E 019°46'0 0.0
2018-Jun-17 21:00N 45°14' E 019°46'0 0.0
2018-Jun-17 20:30N 45°14' E 019°46'0 0.0
2018-Jun-17 20:00N 45°14' E 019°46'0 0.0
2018-Jun-17 19:30N 45°14' E 019°46'0 0.2
2018-Jun-17 19:00N 45°14' E 019°46'0 0.3
2018-Jun-17 18:30N 45°14' E 019°46'1 2.8
2018-Jun-17 18:01N 45°13' E 019°48'2 3.2
2018-Jun-17 17:31N 45°14' E 019°50'2 3.4
2018-Jun-17 17:01N 45°15' E 019°52'1 2.5
2018-Jun-17 16:30N 45°16' E 019°53'1 1.6
2018-Jun-17 16:00N 45°15' E 019°54'2 4.3
2018-Jun-17 15:31N 45°14' E 019°51'4 7.4
2018-Jun-17 15:01N 45°14' E 019°46'0 0.5
2018-Jun-17 14:30N 45°14' E 019°46'0 0.0
2018-Jun-17 12:00N 45°14' E 019°46'0 0.0
2018-Jun-17 11:30N 45°14' E 019°46'0 0.0
2018-Jun-17 11:00N 45°14' E 019°46'0 0.0
2018-Jun-17 10:30N 45°14' E 019°46'0 0.0
2018-Jun-17 10:00N 45°14' E 019°46'0 0.0
2018-Jun-17 09:28N 45°14' E 019°46'0 0.0
2018-Jun-17 08:58N 45°14' E 019°46'0 0.0
2018-Jun-17 08:30N 45°14' E 019°46'0 0.0
2018-Jun-17 08:00N 45°14' E 019°46'0 0.0
2018-Jun-17 03:23N 45°14' E 019°46'0 0.2
2018-Jun-17 03:00N 45°14' E 019°46'0 0.9
2018-Jun-17 02:30N 45°14' E 019°46'1 2.4
2018-Jun-17 02:01N 45°13' E 019°48'1 2.3
2018-Jun-17 01:30N 45°14' E 019°50'1 2.5
2018-Jun-17 01:01N 45°14' E 019°51'1 2.4
2018-Jun-17 00:31N 45°15' E 019°51'1 1.9
2018-Jun-17 00:01N 45°16' E 019°53'1 1.8
2018-Jun-16 23:31N 45°15' E 019°54'1 1.1
2018-Jun-16 23:00N 45°15' E 019°54'1 2.0
2018-Jun-16 22:31N 45°14' E 019°55'1 2.1
2018-Jun-16 22:00N 45°13' E 019°56'1 2.2
2018-Jun-16 21:31N 45°12' E 019°57'1 2.3
2018-Jun-16 21:01N 45°12' E 019°58'1 2.2
2018-Jun-16 20:30N 45°11' E 019°59'1 2.3
2018-Jun-16 20:01N 45°11' E 020°00'1 2.3
2018-Jun-16 19:31N 45°10' E 020°02'1 2.1
2018-Jun-16 19:01N 45°10' E 020°03'1 1.9
2018-Jun-16 18:31N 45°10' E 020°05'1 2.1
2018-Jun-16 18:01N 45°10' E 020°06'1 1.8
2018-Jun-16 17:31N 45°10' E 020°08'1 2.0
2018-Jun-16 17:00N 45°11' E 020°09'1 2.3
2018-Jun-16 16:30N 45°11' E 020°10'1 2.0
2018-Jun-16 16:00N 45°11' E 020°12'1 2.0
2018-Jun-16 15:31N 45°10' E 020°13'1 2.1
2018-Jun-16 15:01N 45°10' E 020°14'1 2.2
2018-Jun-16 14:29N 45°09' E 020°16'1 2.2
2018-Jun-16 14:00N 45°08' E 020°16'1 2.4
2018-Jun-16 13:30N 45°07' E 020°17'1 2.5
2018-Jun-16 13:00N 45°06' E 020°18'2 2.1
2018-Jun-16 11:51N 45°04' E 020°20'1 2.5
2018-Jun-16 11:30N 45°03' E 020°21'1 2.4
2018-Jun-16 11:00N 45°02' E 020°22'1 2.2
2018-Jun-16 10:30N 45°01' E 020°22'1 2.0
2018-Jun-16 10:01N 45°00' E 020°21'1 2.4
2018-Jun-16 09:30N 44°60' E 020°19'1 1.7
2018-Jun-16 09:01N 44°60' E 020°18'0 0.5
2018-Jun-16 08:30N 44°60' E 020°19'0 0.5
2018-Jun-16 08:01N 44°60' E 020°18'1 2.1
2018-Jun-16 07:31N 44°59' E 020°17'1 2.2
2018-Jun-16 07:00N 44°58' E 020°17'1 2.3
2018-Jun-16 06:31N 44°57' E 020°18'1 2.5
2018-Jun-16 06:01N 44°56' E 020°19'1 2.0
2018-Jun-16 05:31N 44°55' E 020°20'1 1.8
2018-Jun-16 05:00N 44°54' E 020°21'1 2.1
2018-Jun-16 04:31N 44°53' E 020°21'1 2.3
2018-Jun-16 04:01N 44°52' E 020°22'1 2.1
2018-Jun-16 03:30N 44°52' E 020°23'1 2.1
2018-Jun-16 03:01N 44°51' E 020°25'1 2.3
2018-Jun-16 02:31N 44°51' E 020°26'1 2.3
2018-Jun-16 02:01N 44°50' E 020°27'1 2.5
2018-Jun-16 01:31N 44°50' E 020°29'2 2.9
2018-Jun-16 00:49N 44°50' E 020°32'1 3.0
2018-Jun-16 00:30N 44°50' E 020°33'1 2.9
2018-Jun-16 00:00N 44°51' E 020°35'1 2.8
2018-Jun-15 23:30N 44°51' E 020°37'1 2.7
2018-Jun-15 23:00N 44°50' E 020°38'1 2.6
2018-Jun-15 22:30N 44°49' E 020°39'1 2.4
2018-Jun-15 22:00N 44°48' E 020°38'2 3.0
2018-Jun-15 21:23N 44°46' E 020°38'1 3.0
2018-Jun-15 20:58N 44°45' E 020°38'1 2.8
2018-Jun-15 20:30N 44°44' E 020°40'1 2.8
2018-Jun-15 20:00N 44°43' E 020°41'2 3.0
2018-Jun-15 19:30N 44°42' E 020°42'1 2.9
2018-Jun-15 19:00N 44°41' E 020°43'5 2.7
2018-Jun-15 17:06N 44°40' E 020°50'2 3.0
2018-Jun-15 16:37N 44°40' E 020°52'1 3.1
2018-Jun-15 16:14N 44°40' E 020°54'1 2.9
2018-Jun-15 15:48N 44°41' E 020°56'1 3.1
2018-Jun-15 15:21N 44°42' E 020°57'1 3.1
2018-Jun-15 15:00N 44°42' E 020°58'1 0.1
2018-Jun-15 09:47N 44°43' E 020°59'0 0.0
2018-Jun-14 22:14N 44°43' E 020°59'0 0.0
2018-Jun-14 22:00N 44°43' E 020°59'0 0.0
2018-Jun-14 21:30N 44°43' E 020°59'0 0.0
2018-Jun-14 21:00N 44°43' E 020°59'0 0.0
2018-Jun-14 20:30N 44°43' E 020°59'0 0.3
2018-Jun-14 20:00N 44°43' E 020°59'0 0.2
2018-Jun-14 19:30N 44°43' E 020°59'0 0.0
2018-Jun-14 19:00N 44°43' E 020°59'0 0.0
2018-Jun-14 18:30N 44°43' E 020°59'0 0.0
2018-Jun-14 18:01N 44°43' E 020°59'0 0.0
2018-Jun-14 17:31N 44°43' E 020°59'0 0.0
2018-Jun-14 17:01N 44°43' E 020°59'0 0.3
2018-Jun-14 16:30N 44°43' E 020°59'0 0.7
2018-Jun-14 16:00N 44°43' E 020°60'0 0.9
2018-Jun-14 15:30N 44°43' E 020°59'0 0.0
2018-Jun-14 15:00N 44°43' E 020°59'0 0.0
2018-Jun-14 14:30N 44°43' E 020°59'0 0.0
2018-Jun-14 14:00N 44°43' E 020°59'0 0.0
2018-Jun-14 13:30N 44°43' E 020°59'0 0.4
2018-Jun-14 13:00N 44°43' E 020°59'0 0.1
2018-Jun-14 12:30N 44°43' E 020°59'0 0.4
2018-Jun-14 12:00N 44°43' E 020°59'0 0.0
2018-Jun-14 11:30N 44°43' E 020°59'0 0.0
2018-Jun-14 11:00N 44°43' E 020°59'0 0.0
2018-Jun-14 10:29N 44°43' E 020°59'0 0.0
2018-Jun-14 10:00N 44°43' E 020°59'0 0.4
2018-Jun-14 09:30N 44°43' E 020°59'0 0.0
2018-Jun-14 09:00N 44°43' E 020°59'0 0.0
2018-Jun-14 08:30N 44°43' E 020°59'0 0.0
2018-Jun-14 08:00N 44°43' E 020°59'0 0.0
2018-Jun-14 07:17N 44°43' E 020°59'0 0.2
2018-Jun-14 06:34N 44°43' E 020°59'0 0.0
2018-Jun-14 06:12N 44°43' E 020°59'0 0.0
2018-Jun-14 05:58N 44°43' E 020°59'0 0.0
2018-Jun-14 05:26N 44°43' E 020°59'0 0.0
2018-Jun-14 04:57N 44°43' E 020°59'0 0.0
2018-Jun-14 04:13N 44°43' E 020°59'0 0.0
2018-Jun-14 03:58N 44°43' E 020°59'0 0.0
2018-Jun-14 03:17N 44°43' E 020°59'0 0.0
2018-Jun-14 03:00N 44°43' E 020°59'0 0.0
2018-Jun-14 02:27N 44°43' E 020°59'0 0.0
2018-Jun-14 01:55N 44°43' E 020°59'0 0.0
2018-Jun-13 23:38N 44°43' E 020°59'0 0.0
2018-Jun-13 23:30N 44°43' E 020°59'0 0.0
2018-Jun-13 23:00N 44°43' E 020°59'0 0.0
2018-Jun-13 22:30N 44°43' E 020°59'0 0.8
2018-Jun-13 21:59N 44°43' E 020°60'0 0.0
2018-Jun-13 21:30N 44°43' E 020°60'0 0.0
2018-Jun-13 20:59N 44°43' E 020°60'0 0.0
2018-Jun-13 20:30N 44°43' E 020°60'0 0.0
2018-Jun-13 20:00N 44°43' E 020°60'0 0.0
2018-Jun-13 19:30N 44°43' E 020°60'0 0.4
2018-Jun-13 19:00N 44°43' E 020°59'0 0.4
2018-Jun-13 18:30N 44°43' E 020°59'0 0.7
2018-Jun-13 18:00N 44°43' E 020°59'1 2.8
2018-Jun-13 17:30N 44°42' E 020°58'2 4.1
2018-Jun-13 17:00N 44°41' E 020°56'0 0.0
2018-Jun-13 16:30N 44°41' E 020°56'0 0.1
2018-Jun-13 16:00N 44°41' E 020°56'0 0.4
2018-Jun-13 15:30N 44°41' E 020°56'2 4.1
2018-Jun-13 15:00N 44°40' E 020°54'3 6.1
2018-Jun-13 14:30N 44°39' E 020°49'3 6.4
2018-Jun-13 14:00N 44°40' E 020°45'3 6.4
2018-Jun-13 13:30N 44°42' E 020°42'3 6.2
2018-Jun-13 13:00N 44°45' E 020°39'3 5.7
2018-Jun-13 12:30N 44°47' E 020°38'3 6.0
2018-Jun-13 12:00N 44°50' E 020°38'3 5.4
2018-Jun-13 11:30N 44°51' E 020°35'3 5.8
2018-Jun-13 11:01N 44°50' E 020°31'3 6.1
2018-Jun-13 10:30N 44°50' E 020°27'3 6.5
2018-Jun-13 10:00N 44°52' E 020°23'3 6.4
2018-Jun-13 09:30N 44°55' E 020°20'3 6.8
2018-Jun-13 09:00N 44°57' E 020°17'3 5.1
2018-Jun-13 08:30N 44°60' E 020°18'0 0.1
2018-Jun-13 08:00N 44°60' E 020°18'0 0.4
2018-Jun-13 07:30N 44°60' E 020°19'0 0.4
2018-Jun-13 07:01N 44°60' E 020°18'1 2.8
2018-Jun-13 06:31N 45°00' E 020°20'3 5.0
2018-Jun-13 06:01N 45°02' E 020°22'3 6.2
2018-Jun-13 05:28N 45°05' E 020°19'3 6.3
2018-Jun-13 04:59N 45°08' E 020°17'3 6.3
2018-Jun-13 04:30N 45°10' E 020°14'3 5.7
2018-Jun-13 04:00N 45°11' E 020°10'3 5.9
2018-Jun-13 03:30N 45°10' E 020°06'3 6.1
2018-Jun-13 03:00N 45°10' E 020°02'2 4.4
2018-Jun-13 02:30N 45°11' E 019°59'0 0.2
2018-Jun-13 02:00N 45°11' E 019°59'0 0.0
2018-Jun-13 01:30N 45°11' E 019°59'0 0.0
2018-Jun-13 01:00N 45°11' E 019°59'0 0.0
2018-Jun-13 00:30N 45°11' E 019°59'0 0.1
2018-Jun-13 00:00N 45°11' E 019°59'0 0.0
2018-Jun-12 23:30N 45°11' E 019°59'0 0.0
2018-Jun-12 23:00N 45°11' E 019°59'0 0.0
2018-Jun-12 22:30N 45°11' E 019°59'0 0.0
2018-Jun-12 22:00N 45°11' E 019°59'0 0.0
2018-Jun-12 21:30N 45°11' E 019°59'0 0.0
2018-Jun-12 21:00N 45°11' E 019°59'0 0.0
2018-Jun-12 20:30N 45°11' E 019°59'0 0.0
2018-Jun-12 20:00N 45°11' E 019°59'0 0.0
2018-Jun-12 19:30N 45°11' E 019°59'0 0.0
2018-Jun-12 19:00N 45°11' E 019°59'0 0.0
2018-Jun-12 18:30N 45°11' E 019°59'0 0.0
2018-Jun-12 18:00N 45°11' E 019°59'0 0.5
2018-Jun-12 17:30N 45°11' E 019°59'0 0.1
2018-Jun-12 17:00N 45°11' E 019°59'0 0.1
2018-Jun-12 16:30N 45°11' E 019°59'0 0.0
2018-Jun-12 16:00N 45°11' E 019°59'0 0.0
2018-Jun-12 15:30N 45°11' E 019°59'0 0.0
2018-Jun-12 15:00N 45°11' E 019°59'0 0.2
2018-Jun-12 14:30N 45°11' E 019°59'0 0.3
2018-Jun-12 14:00N 45°11' E 019°59'0 0.0
2018-Jun-12 13:30N 45°11' E 019°59'0 0.0
2018-Jun-12 13:00N 45°11' E 019°59'0 0.0
2018-Jun-12 12:30N 45°11' E 019°59'0 0.0
2018-Jun-12 12:00N 45°11' E 019°59'0 0.0
2018-Jun-12 11:30N 45°11' E 019°59'0 0.0
2018-Jun-12 11:00N 45°11' E 019°59'0 0.0
2018-Jun-12 10:30N 45°11' E 019°59'0 0.0
2018-Jun-12 09:47N 45°11' E 019°59'0 0.9
2018-Jun-12 09:30N 45°11' E 019°59'0 0.5
2018-Jun-12 09:00N 45°11' E 019°59'0 0.0
2018-Jun-12 08:30N 45°11' E 019°59'0 0.0
2018-Jun-12 08:00N 45°11' E 019°59'0 0.0
2018-Jun-12 07:30N 45°11' E 019°59'0 0.0
2018-Jun-12 07:00N 45°11' E 019°59'0 0.0
2018-Jun-12 06:30N 45°11' E 019°59'0 0.0
2018-Jun-12 06:00N 45°11' E 019°59'0 0.0
2018-Jun-12 05:30N 45°11' E 019°59'0 0.0
2018-Jun-12 05:00N 45°11' E 019°59'0 0.0
2018-Jun-12 04:30N 45°11' E 019°59'0 0.4
2018-Jun-12 04:00N 45°11' E 019°59'0 0.4
2018-Jun-12 03:30N 45°11' E 019°59'0 0.4
2018-Jun-12 03:00N 45°11' E 019°59'0 0.5
2018-Jun-12 02:30N 45°11' E 019°59'0 0.0
2018-Jun-12 02:00N 45°11' E 019°59'0 0.0
2018-Jun-12 01:30N 45°11' E 019°59'0 0.0
2018-Jun-12 00:50N 45°11' E 019°59'0 0.0
2018-Jun-12 00:30N 45°11' E 019°59'0 0.0
2018-Jun-12 00:00N 45°11' E 019°59'0 0.0
2018-Jun-11 23:30N 45°11' E 019°59'0 0.0
2018-Jun-11 23:00N 45°11' E 019°59'0 0.0
2018-Jun-11 22:30N 45°11' E 019°59'0 0.0
2018-Jun-11 22:00N 45°11' E 019°59'0 0.3
2018-Jun-11 21:30N 45°11' E 019°59'0 0.1
2018-Jun-11 21:00N 45°11' E 019°59'0 0.4
2018-Jun-11 20:30N 45°11' E 019°59'0 0.5
2018-Jun-11 20:00N 45°11' E 019°59'0 0.0
2018-Jun-11 19:30N 45°11' E 019°59'0 0.0
2018-Jun-11 19:00N 45°11' E 019°59'0 0.0
2018-Jun-11 18:30N 45°11' E 019°59'0 0.0
2018-Jun-11 18:00N 45°11' E 019°59'0 0.0
2018-Jun-11 17:30N 45°11' E 019°59'0 0.0
2018-Jun-11 17:00N 45°11' E 019°59'0 0.0
2018-Jun-11 16:30N 45°11' E 019°59'0 0.4
2018-Jun-11 16:00N 45°11' E 019°59'0 0.3
2018-Jun-11 15:30N 45°11' E 019°59'0 0.1
2018-Jun-11 15:00N 45°11' E 019°59'0 0.5
2018-Jun-11 14:30N 45°11' E 019°59'0 0.0
2018-Jun-11 14:00N 45°11' E 019°59'0 0.0
2018-Jun-11 13:30N 45°11' E 019°59'0 0.0
2018-Jun-11 13:00N 45°11' E 019°59'0 0.0
2018-Jun-11 12:30N 45°11' E 019°59'0 0.0
2018-Jun-11 12:00N 45°11' E 019°59'0 0.0
2018-Jun-11 11:30N 45°11' E 019°59'0 0.0
2018-Jun-11 11:00N 45°11' E 019°59'0 0.0
2018-Jun-11 10:30N 45°11' E 019°59'0 0.0
2018-Jun-11 10:00N 45°11' E 019°59'0 0.0
2018-Jun-11 09:30N 45°11' E 019°59'0 0.1
2018-Jun-11 09:00N 45°11' E 019°58'0 0.4
2018-Jun-11 08:30N 45°11' E 019°59'0 0.0
2018-Jun-11 08:00N 45°11' E 019°59'18 0.5
2018-Jun-09 18:19N 44°60' E 020°18'0 0.0
2018-Jun-09 18:00N 44°60' E 020°18'0 0.0
2018-Jun-09 17:29N 44°60' E 020°18'0 0.0
2018-Jun-09 17:00N 44°60' E 020°18'0 0.0
2018-Jun-09 16:30N 44°60' E 020°18'0 0.0
2018-Jun-09 16:00N 44°60' E 020°18'0 0.0
2018-Jun-09 15:30N 44°60' E 020°18'0 0.0
2018-Jun-09 14:30N 44°60' E 020°18'0 0.0
2018-Jun-09 14:00N 44°60' E 020°18'0 0.3
2018-Jun-09 13:30N 44°60' E 020°18'0 0.3
2018-Jun-09 13:00N 44°60' E 020°18'0 0.0
2018-Jun-09 12:30N 44°60' E 020°18'0 0.1
2018-Jun-09 12:00N 44°60' E 020°18'0 0.3
2018-Jun-09 11:30N 44°60' E 020°19'0 0.0
2018-Jun-09 11:00N 44°60' E 020°19'0 0.0
2018-Jun-09 10:30N 44°60' E 020°19'0 0.0
2018-Jun-09 10:00N 44°60' E 020°19'0 0.0
2018-Jun-09 09:30N 44°60' E 020°19'0 0.0
2018-Jun-09 09:00N 44°60' E 020°19'0 0.0
2018-Jun-09 08:30N 44°60' E 020°19'0 0.0
2018-Jun-09 08:00N 44°60' E 020°19'0 0.0
2018-Jun-09 07:30N 44°60' E 020°19'0 0.0
2018-Jun-09 07:00N 44°60' E 020°19'0 0.0
2018-Jun-09 06:30N 44°60' E 020°19'0 0.0
2018-Jun-09 06:00N 44°60' E 020°19'0 0.0
2018-Jun-09 05:30N 44°60' E 020°19'0 0.0
2018-Jun-09 05:00N 44°60' E 020°19'0 0.1
2018-Jun-09 04:30N 44°60' E 020°19'0 0.1
2018-Jun-09 04:00N 44°60' E 020°19'0 0.3
2018-Jun-09 03:30N 44°60' E 020°18'0 0.0
2018-Jun-09 03:00N 44°60' E 020°18'0 0.0
2018-Jun-09 02:30N 44°60' E 020°18'0 0.4
2018-Jun-09 02:00N 44°60' E 020°19'0 0.0
2018-Jun-09 01:30N 44°60' E 020°19'0 0.0
2018-Jun-09 01:00N 44°60' E 020°19'0 0.0
2018-Jun-09 00:30N 44°60' E 020°19'0 0.0
2018-Jun-09 00:00N 44°60' E 020°19'0 0.0
2018-Jun-08 23:30N 44°60' E 020°19'0 0.0
2018-Jun-08 23:00N 44°60' E 020°19'0 0.0
2018-Jun-08 22:30N 44°60' E 020°19'0 0.0
2018-Jun-08 22:00N 44°60' E 020°19'0 0.0
2018-Jun-08 21:30N 44°60' E 020°19'0 0.6
2018-Jun-08 21:00N 44°60' E 020°18'0 0.7
2018-Jun-08 20:30N 44°60' E 020°19'0 0.3
2018-Jun-08 20:00N 44°60' E 020°18'0 0.0
2018-Jun-08 19:30N 44°60' E 020°18'0 0.0
2018-Jun-08 19:00N 44°60' E 020°18'0 0.0
2018-Jun-08 18:30N 44°60' E 020°18'0 0.0
2018-Jun-08 18:00N 44°60' E 020°18'0 0.0
2018-Jun-08 17:30N 44°60' E 020°18'  

Dump ship's entire track history